KCDS/CDS METAR and TAF weather

Enter ICAO airport designator
Station Type Date Time Source
KCDS METAR 2018/04/23 10:53 UTC NOAA

KCDS 231053Z AUTO 34005KT 10SM CLR 06/04 A3015 RMK AO2 SLP203 T00610044


Station Type Date Time Source
KCDS Decoded METAR 2018/04/23 10:53 UTC NOAA

CHILDRESS MUNICIPAL AIRPORT, TX, United States (KCDS) 34-26N 100-17W 594M
Apr 23, 2018 - 06:53 AM EDT / 2018.04.23 1053 UTC
Wind: from the NNW (340 degrees) at 6 MPH (5 KT):0
Visibility: 10 mile(s):0
Sky conditions: clear
Temperature: 43.0 F (6.1 C)
Dew Point: 39.9 F (4.4 C)
Relative Humidity: 88%
Pressure (altimeter): 30.15 in. Hg (1020 hPa)
ob: KCDS 231053Z AUTO 34005KT 10SM CLR 06/04 A3015 RMK AO2 SLP203 T00610044
cycle: 11

Station Type Date Time Source
KCDS TAF 2018/04/23 06:22 UTC NOAA

TAF KCDS 230520Z 2306/2406 VRB04KT P6SM SCT250
FM231800 15006KT P6SM SCT250


Example: see airport list